Opal Express — V7KB8 — position and weather

sailwx.info

Track history (hours):
 
Tides and Currents Weather Stations Pressure Air Temp Water Temp Dewpoint Dewpoint Depression Visibility Wind Speed Wind Dir Waves Ship Positions

Opal Express

Last reported at 2017-May-18 18:56 UTC. Time now 2017-May-25 08:38 UTC.
Position N 09°11' W 079°53'.

Length 179 m; draft 7.8 m.

Type: Tanker. MMSI: 538002500.

Date/timePositionNaut miles runAvg speedWind from/ knotsBaromVisibWave heightAir tempDewpointWater temp
2017-May-18 18:56N 09°11' W 079°53'4 9.3
2017-May-18 18:29N 09°13' W 079°56'0 0.1
2017-May-18 13:59N 09°14' W 079°56'2 3.5
2017-May-18 13:30N 09°16' W 079°55'1 1.5
2017-May-18 13:00N 09°16' W 079°55'0 0.3
2017-May-18 12:30N 09°16' W 079°55'0 0.3
2017-May-18 12:00N 09°17' W 079°55'1 1.1
2017-May-18 11:30N 09°17' W 079°55'3 6.7
2017-May-18 11:00N 09°20' W 079°55'2 4.5
2017-May-18 10:30N 09°23' W 079°55'3 5.8
2017-May-18 10:00N 09°26' W 079°56'1 2.8
2017-May-18 09:30N 09°25' W 079°57'0 0.1
2017-May-18 09:00N 09°26' W 079°57'0 0.0
2017-May-18 08:27N 09°26' W 079°57'0 0.0
2017-May-18 08:00N 09°26' W 079°57'0 0.0
2017-May-18 07:24N 09°26' W 079°57'0 0.0
2017-May-18 06:57N 09°26' W 079°57'0 0.0
2017-May-18 06:27N 09°26' W 079°57'0 0.0
2017-May-18 06:00N 09°26' W 079°57'0 0.0
2017-May-18 05:30N 09°26' W 079°57'0 0.0
2017-May-18 05:00N 09°26' W 079°57'0 0.0
2017-May-18 04:30N 09°26' W 079°57'0 0.0
2017-May-18 04:00N 09°26' W 079°57'0 0.0
2017-May-18 03:30N 09°26' W 079°57'0 0.0
2017-May-18 03:00N 09°26' W 079°57'0 0.0
2017-May-18 02:30N 09°26' W 079°57'0 0.0
2017-May-18 01:57N 09°26' W 079°57'0 0.0
2017-May-18 01:30N 09°26' W 079°57'0 0.0
2017-May-18 01:00N 09°26' W 079°57'0 0.0
2017-May-18 00:27N 09°26' W 079°57'0 0.0
2017-May-18 00:00N 09°26' W 079°57'0 0.0
2017-May-17 23:30N 09°26' W 079°57'0 0.0
2017-May-17 22:54N 09°26' W 079°57'0 0.0
2017-May-17 22:31N 09°26' W 079°57'1 2.7
2017-May-17 22:01N 09°27' W 079°56'3 5.1
2017-May-17 21:30N 09°29' W 079°54'4 7.1
2017-May-17 21:01N 09°32' W 079°53'  
2017-May-13 05:30N 29°21' W 094°42'811.8
2017-May-13 04:52N 29°25' W 094°50'512.0
2017-May-13 04:26N 29°30' W 094°52'511.3
2017-May-13 04:00N 29°34' W 094°55'5 9.8
2017-May-13 03:31N 29°38' W 094°58'5 8.9
2017-May-13 03:00N 29°42' W 094°60'3 6.3
2017-May-13 02:31N 29°44' W 095°03'3 5.7
2017-May-13 02:00N 29°45' W 095°06'1 0.0
2017-May-11 04:55N 29°45' W 095°06'0 0.6
2017-May-11 04:30N 29°45' W 095°06'2 4.5
2017-May-11 04:00N 29°44' W 095°03'4 7.7
2017-May-11 03:30N 29°42' W 094°60'510.0
2017-May-11 03:00N 29°37' W 094°58'611.7
2017-May-11 02:30N 29°32' W 094°54'612.7
2017-May-11 02:00N 29°27' W 094°51'612.4
2017-May-11 01:30N 29°21' W 094°47'1111.3
2017-May-11 00:32N 29°18' W 094°36'0 9.9
2017-May-11 00:29N 29°18' W 094°35'  
Track history (hours):
 
Tides and Currents Weather Stations Pressure Air Temp Water Temp Dewpoint Dewpoint Depression Visibility Wind Speed Wind Dir Waves Ship Positions

Opal Express

Last reported at 2017-May-18 18:56 UTC. Time now 2017-May-25 08:38 UTC.
Position N 09°11' W 079°53'.

Length 179 m; draft 7.8 m.

Type: Tanker. MMSI: 538002500.

Date/timePositionNaut miles runAvg speedWind from/ knotsBaromVisibWave heightAir tempDewpointWater temp
2017-May-18 18:56N 09°11' W 079°53'4 9.3
2017-May-18 18:29N 09°13' W 079°56'0 0.1
2017-May-18 13:59N 09°14' W 079°56'2 3.5
2017-May-18 13:30N 09°16' W 079°55'1 1.5
2017-May-18 13:00N 09°16' W 079°55'0 0.3
2017-May-18 12:30N 09°16' W 079°55'0 0.3
2017-May-18 12:00N 09°17' W 079°55'1 1.1
2017-May-18 11:30N 09°17' W 079°55'3 6.7
2017-May-18 11:00N 09°20' W 079°55'2 4.5
2017-May-18 10:30N 09°23' W 079°55'3 5.8
2017-May-18 10:00N 09°26' W 079°56'1 2.8
2017-May-18 09:30N 09°25' W 079°57'0 0.1
2017-May-18 09:00N 09°26' W 079°57'0 0.0
2017-May-18 08:27N 09°26' W 079°57'0 0.0
2017-May-18 08:00N 09°26' W 079°57'0 0.0
2017-May-18 07:24N 09°26' W 079°57'0 0.0
2017-May-18 06:57N 09°26' W 079°57'0 0.0
2017-May-18 06:27N 09°26' W 079°57'0 0.0
2017-May-18 06:00N 09°26' W 079°57'0 0.0
2017-May-18 05:30N 09°26' W 079°57'0 0.0
2017-May-18 05:00N 09°26' W 079°57'0 0.0
2017-May-18 04:30N 09°26' W 079°57'0 0.0
2017-May-18 04:00N 09°26' W 079°57'0 0.0
2017-May-18 03:30N 09°26' W 079°57'0 0.0
2017-May-18 03:00N 09°26' W 079°57'0 0.0
2017-May-18 02:30N 09°26' W 079°57'0 0.0
2017-May-18 01:57N 09°26' W 079°57'0 0.0
2017-May-18 01:30N 09°26' W 079°57'0 0.0
2017-May-18 01:00N 09°26' W 079°57'0 0.0
2017-May-18 00:27N 09°26' W 079°57'0 0.0
2017-May-18 00:00N 09°26' W 079°57'0 0.0
2017-May-17 23:30N 09°26' W 079°57'0 0.0
2017-May-17 22:54N 09°26' W 079°57'0 0.0
2017-May-17 22:31N 09°26' W 079°57'1 2.7
2017-May-17 22:01N 09°27' W 079°56'3 5.1
2017-May-17 21:30N 09°29' W 079°54'4 7.1
2017-May-17 21:01N 09°32' W 079°53'  
2017-May-13 05:30N 29°21' W 094°42'811.8
2017-May-13 04:52N 29°25' W 094°50'512.0
2017-May-13 04:26N 29°30' W 094°52'511.3
2017-May-13 04:00N 29°34' W 094°55'5 9.8
2017-May-13 03:31N 29°38' W 094°58'5 8.9
2017-May-13 03:00N 29°42' W 094°60'3 6.3
2017-May-13 02:31N 29°44' W 095°03'3 5.7
2017-May-13 02:00N 29°45' W 095°06'1 0.0
2017-May-11 04:55N 29°45' W 095°06'0 0.6
2017-May-11 04:30N 29°45' W 095°06'2 4.5
2017-May-11 04:00N 29°44' W 095°03'4 7.7
2017-May-11 03:30N 29°42' W 094°60'510.0
2017-May-11 03:00N 29°37' W 094°58'611.7
2017-May-11 02:30N 29°32' W 094°54'612.7
2017-May-11 02:00N 29°27' W 094°51'612.4
2017-May-11 01:30N 29°21' W 094°47'1111.3
2017-May-11 00:32N 29°18' W 094°36'0 9.9
2017-May-11 00:29N 29°18' W 094°35'  

Dump ship's entire track history